CYEV

Details ICAO CYEV (YEV)
Name INUVIK MIKE ZUBKO
Region Canada
Timezone America/Inuvik (UTC-6.0)
Plans Departing 25
Arriving 23
Stats Elevation 224 ft / 68 m (AMSL)
Location 68.303792° -133.483167°
Runways 1
Magnetic Variation 21.354° E
Sunrise 2018-05-23 09:26:58 UTC / 2018-05-23 03:26:58 Local
Sunset 2018-05-24 08:17:20 UTC / 2018-05-24 02:17:20 Local
Advertisement - Login to hide

Runways

ID Width Length Bearing (true) Bearing (mag) Surface Threshold Offset Overrun Length
06 150 ft / 46 m 5,982 ft / 1,823 m 85.80° 64.45° Asphalt 0 ft / 0 m 0 ft / 0 m
24 150 ft / 46 m 5,982 ft / 1,823 m 265.84° 244.49° Asphalt 0 ft / 0 m 0 ft / 0 m

Map

Weather


0- 5 10 15 20 25 30 35+ Temperature / ° C

Clouds and Precipitation
Forecast for 2018-05-24 00:00 UTC. Updated 10 minutes ago

Ground ~20,000 ft ~40,000 ft Winds

METAR

CYEV 232300Z 03010KT 15SM OVC017 01/M03 A2989 RMK ST8 SLP128

TAF

TAF CYEV 231838Z 2319/2407 01008KT P6SM OVC012 TEMPO 2319/2403 5SM -SN BR OVC008 FM240300 04007KT P6SM OVC012 TEMPO 2403/2407 5SM -SN OVC006 PROB40 2403/2407 2SM -FZDZ BR OVC004 RMK NXT FCST BY 240100Z

Frequencies

Recorded 128.50 MHz ATIS
Unicom 122.30 MHz MANDATORY FREQ
Warning: Do not use this data for real-world aviation or navigation. No guarantee of current accuracy is given.